This is the latest recevied weather packets stored in our database for station/object NI4CE-14. If no packets are shown the sender has not sent any weather packets the latest 10 day(s).
| Time | Temp. | Humidity | Pressure | Rain* | Wind** | Luminosity | Snow |
|---|---|---|---|---|---|---|---|
| 1778035994 | 26.67° C | 100% | 1014.6 hPa | 0 mm | - | - | - |
| 1778035694 | 26.67° C | 100% | 1014.4 hPa | 0 mm | - | - | - |
| 1778035394 | 26.67° C | 100% | 1014.3 hPa | 0 mm | - | - | - |
| 1778035094 | 26.67° C | 100% | 1014 hPa | 0 mm | - | - | - |
| 1778034794 | 26.67° C | 100% | 1013.9 hPa | 0 mm | - | - | - |
| 1778034494 | 26.67° C | 100% | 1013.9 hPa | 0 mm | - | - | - |
| 1778034194 | 27.22° C | 100% | 1013.9 hPa | 0 mm | - | - | - |
| 1778033894 | 26.67° C | 100% | 1013.8 hPa | 0 mm | - | - | - |
| 1778033744 | 27.22° C | 100% | 1013.8 hPa | 0 mm | - | - | - |
| 1778033594 | 27.22° C | 100% | 1013.8 hPa | 0 mm | - | - | - |
| 1778033294 | 27.22° C | 100% | 1013.8 hPa | 0 mm | - | - | - |
| 1778032694 | 27.22° C | 100% | 1013.8 hPa | 0 mm | - | - | - |
| 1778032394 | 27.22° C | 100% | 1013.7 hPa | 0 mm | - | - | - |
| 1778031494 | 27.22° C | 100% | 1013.5 hPa | 0 mm | - | - | - |
| 1778031194 | 27.22° C | 100% | 1013.4 hPa | 0 mm | - | - | - |
| 1778029094 | 27.22° C | 100% | 1011.1 hPa | 0 mm | - | - | - |
| 1778027294 | 28.33° C | 100% | 1012.9 hPa | 0 mm | - | - | - |
| 1778026149 | 28.33° C | 100% | 1010.9 hPa | 0 mm | - | - | - |
| 1778020694 | 29.44° C | 100% | 1012.8 hPa | 0 mm | - | - | - |
| 1778020550 | 29.44° C | 100% | 1012.9 hPa | 0 mm | - | - | - |
| 1778020394 | 29.44° C | 100% | 1012.9 hPa | 0 mm | - | - | - |
| 1778020094 | 29.44° C | 100% | 1012.8 hPa | 0 mm | - | - | - |
| 1778019794 | 29.44° C | 100% | 1012.8 hPa | 0 mm | - | - | - |
| 1778019194 | 30° C | 100% | 1012.9 hPa | 0 mm | - | - | - |
| 1778018894 | 29.44° C | 100% | 1012.9 hPa | 0 mm | - | - | - |
* Rain latest hour (hover to see other rain measurements)
** Current wind speed in m/s (hover to see current wind gust speed)